sensor_id;sensor_type;location;lat;lon;timestamp;P1;durP1;ratioP1;P2;durP2;ratioP2
37657;SDS011;23500;53.268;8.308;2023-04-24T00:00:05;5.35;;;4.60;;
37657;SDS011;23500;53.268;8.308;2023-04-24T00:02:32;4.60;;;4.20;;
37657;SDS011;23500;53.268;8.308;2023-04-24T00:04:58;5.03;;;4.63;;
37657;SDS011;23500;53.268;8.308;2023-04-24T00:07:28;4.95;;;4.55;;
37657;SDS011;23500;53.268;8.308;2023-04-24T00:09:54;4.90;;;4.40;;
37657;SDS011;23500;53.268;8.308;2023-04-24T00:12:20;4.93;;;4.43;;
37657;SDS011;23500;53.268;8.308;2023-04-24T00:14:45;5.05;;;4.63;;
37657;SDS011;23500;53.268;8.308;2023-04-24T00:17:11;4.68;;;4.22;;
37657;SDS011;23500;53.268;8.308;2023-04-24T00:19:37;5.05;;;4.57;;
37657;SDS011;23500;53.268;8.308;2023-04-24T00:22:02;4.57;;;4.28;;
37657;SDS011;23500;53.268;8.308;2023-04-24T00:24:28;4.90;;;4.40;;
37657;SDS011;23500;53.268;8.308;2023-04-24T00:26:54;6.60;;;4.45;;
37657;SDS011;23500;53.268;8.308;2023-04-24T00:29:19;4.55;;;4.15;;
37657;SDS011;23500;53.268;8.308;2023-04-24T00:31:45;5.00;;;4.57;;
37657;SDS011;23500;53.268;8.308;2023-04-24T00:34:11;4.55;;;4.15;;
37657;SDS011;23500;53.268;8.308;2023-04-24T00:36:37;5.15;;;4.40;;
37657;SDS011;23500;53.268;8.308;2023-04-24T00:39:03;4.72;;;4.32;;
37657;SDS011;23500;53.268;8.308;2023-04-24T00:41:29;5.78;;;4.63;;
37657;SDS011;23500;53.268;8.308;2023-04-24T00:43:55;4.65;;;4.05;;
37657;SDS011;23500;53.268;8.308;2023-04-24T00:46:21;4.30;;;4.00;;
37657;SDS011;23500;53.268;8.308;2023-04-24T00:48:47;4.50;;;4.10;;
37657;SDS011;23500;53.268;8.308;2023-04-24T00:51:12;4.43;;;4.03;;
37657;SDS011;23500;53.268;8.308;2023-04-24T00:53:38;5.10;;;4.10;;
37657;SDS011;23500;53.268;8.308;2023-04-24T00:56:04;4.45;;;4.05;;
37657;SDS011;23500;53.268;8.308;2023-04-24T00:58:30;4.20;;;3.80;;
37657;SDS011;23500;53.268;8.308;2023-04-24T01:00:56;4.03;;;3.72;;
37657;SDS011;23500;53.268;8.308;2023-04-24T01:03:24;3.72;;;3.42;;
37657;SDS011;23500;53.268;8.308;2023-04-24T01:05:54;4.10;;;3.70;;
37657;SDS011;23500;53.268;8.308;2023-04-24T01:08:20;4.20;;;3.80;;
37657;SDS011;23500;53.268;8.308;2023-04-24T01:10:49;4.20;;;3.80;;
37657;SDS011;23500;53.268;8.308;2023-04-24T01:13:17;3.90;;;3.50;;
37657;SDS011;23500;53.268;8.308;2023-04-24T01:15:46;4.20;;;3.88;;
37657;SDS011;23500;53.268;8.308;2023-04-24T01:18:12;4.28;;;3.90;;
37657;SDS011;23500;53.268;8.308;2023-04-24T01:20:39;3.97;;;3.67;;
37657;SDS011;23500;53.268;8.308;2023-04-24T01:23:06;4.03;;;3.72;;
37657;SDS011;23500;53.268;8.308;2023-04-24T01:25:32;4.10;;;3.80;;
37657;SDS011;23500;53.268;8.308;2023-04-24T01:27:58;3.83;;;3.53;;
37657;SDS011;23500;53.268;8.308;2023-04-24T01:30:25;3.80;;;3.50;;
37657;SDS011;23500;53.268;8.308;2023-04-24T01:32:51;3.88;;;3.58;;
37657;SDS011;23500;53.268;8.308;2023-04-24T01:35:18;3.95;;;3.55;;
37657;SDS011;23500;53.268;8.308;2023-04-24T01:37:45;3.55;;;3.25;;
37657;SDS011;23500;53.268;8.308;2023-04-24T01:40:11;3.80;;;3.50;;
37657;SDS011;23500;53.268;8.308;2023-04-24T01:42:36;3.67;;;3.38;;
37657;SDS011;23500;53.268;8.308;2023-04-24T01:45:03;4.00;;;3.50;;
37657;SDS011;23500;53.268;8.308;2023-04-24T01:47:30;3.50;;;3.20;;
37657;SDS011;23500;53.268;8.308;2023-04-24T01:49:56;3.85;;;3.53;;
37657;SDS011;23500;53.268;8.308;2023-04-24T01:52:22;3.67;;;3.38;;
37657;SDS011;23500;53.268;8.308;2023-04-24T01:54:48;3.30;;;3.10;;
37657;SDS011;23500;53.268;8.308;2023-04-24T01:57:14;3.45;;;3.15;;
37657;SDS011;23500;53.268;8.308;2023-04-24T01:59:41;4.03;;;3.33;;
37657;SDS011;23500;53.268;8.308;2023-04-24T02:02:06;3.22;;;3.03;;
37657;SDS011;23500;53.268;8.308;2023-04-24T02:04:32;3.88;;;3.58;;
37657;SDS011;23500;53.268;8.308;2023-04-24T02:06:58;3.42;;;3.20;;
37657;SDS011;23500;53.268;8.308;2023-04-24T02:09:23;3.60;;;3.30;;
37657;SDS011;23500;53.268;8.308;2023-04-24T02:11:50;3.75;;;3.45;;
37657;SDS011;23500;53.268;8.308;2023-04-24T02:14:15;3.30;;;3.10;;
37657;SDS011;23500;53.268;8.308;2023-04-24T02:16:41;3.88;;;3.58;;
37657;SDS011;23500;53.268;8.308;2023-04-24T02:19:07;3.60;;;3.30;;
37657;SDS011;23500;53.268;8.308;2023-04-24T02:21:33;3.40;;;3.10;;
37657;SDS011;23500;53.268;8.308;2023-04-24T02:23:58;4.07;;;3.30;;
37657;SDS011;23500;53.268;8.308;2023-04-24T02:26:24;3.33;;;3.03;;
37657;SDS011;23500;53.268;8.308;2023-04-24T02:28:50;3.58;;;3.28;;
37657;SDS011;23500;53.268;8.308;2023-04-24T02:31:15;2.90;;;2.70;;
37657;SDS011;23500;53.268;8.308;2023-04-24T02:33:41;3.35;;;3.13;;
37657;SDS011;23500;53.268;8.308;2023-04-24T02:36:07;3.25;;;3.00;;
37657;SDS011;23500;53.268;8.308;2023-04-24T02:38:32;2.97;;;2.78;;
37657;SDS011;23500;53.268;8.308;2023-04-24T02:40:58;3.15;;;2.90;;
37657;SDS011;23500;53.268;8.308;2023-04-24T02:43:25;3.45;;;3.15;;
37657;SDS011;23500;53.268;8.308;2023-04-24T02:45:51;3.20;;;3.00;;
37657;SDS011;23500;53.268;8.308;2023-04-24T02:48:16;3.15;;;2.95;;
37657;SDS011;23500;53.268;8.308;2023-04-24T02:50:42;3.28;;;3.05;;
37657;SDS011;23500;53.268;8.308;2023-04-24T02:53:08;3.30;;;3.00;;
37657;SDS011;23500;53.268;8.308;2023-04-24T02:55:34;3.05;;;2.85;;
37657;SDS011;23500;53.268;8.308;2023-04-24T02:58:00;3.05;;;2.83;;
37657;SDS011;23500;53.268;8.308;2023-04-24T03:00:26;3.30;;;3.10;;
37657;SDS011;23500;53.268;8.308;2023-04-24T03:02:51;4.25;;;3.22;;
37657;SDS011;23500;53.268;8.308;2023-04-24T03:05:18;2.85;;;2.65;;
37657;SDS011;23500;53.268;8.308;2023-04-24T03:07:43;3.08;;;2.88;;
37657;SDS011;23500;53.268;8.308;2023-04-24T03:10:10;2.85;;;2.65;;
37657;SDS011;23500;53.268;8.308;2023-04-24T03:12:36;3.15;;;2.88;;
37657;SDS011;23500;53.268;8.308;2023-04-24T03:15:01;2.70;;;2.50;;
37657;SDS011;23500;53.268;8.308;2023-04-24T03:17:27;2.95;;;2.75;;
37657;SDS011;23500;53.268;8.308;2023-04-24T03:19:53;3.08;;;2.88;;
37657;SDS011;23500;53.268;8.308;2023-04-24T03:22:19;2.90;;;2.70;;
37657;SDS011;23500;53.268;8.308;2023-04-24T03:24:44;3.10;;;2.90;;
37657;SDS011;23500;53.268;8.308;2023-04-24T03:27:10;2.83;;;2.63;;
37657;SDS011;23500;53.268;8.308;2023-04-24T03:29:35;2.65;;;2.45;;
37657;SDS011;23500;53.268;8.308;2023-04-24T03:32:01;3.10;;;2.90;;
37657;SDS011;23500;53.268;8.308;2023-04-24T03:34:27;2.80;;;2.60;;
37657;SDS011;23500;53.268;8.308;2023-04-24T03:36:53;2.80;;;2.60;;
37657;SDS011;23500;53.268;8.308;2023-04-24T03:39:18;3.15;;;2.85;;
37657;SDS011;23500;53.268;8.308;2023-04-24T03:41:44;2.50;;;2.40;;
37657;SDS011;23500;53.268;8.308;2023-04-24T03:44:09;3.20;;;2.90;;
37657;SDS011;23500;53.268;8.308;2023-04-24T03:46:35;2.63;;;2.42;;
37657;SDS011;23500;53.268;8.308;2023-04-24T03:49:01;2.88;;;2.67;;
37657;SDS011;23500;53.268;8.308;2023-04-24T03:51:26;2.88;;;2.67;;
37657;SDS011;23500;53.268;8.308;2023-04-24T03:53:55;2.80;;;2.60;;
37657;SDS011;23500;53.268;8.308;2023-04-24T03:56:21;2.72;;;2.53;;
37657;SDS011;23500;53.268;8.308;2023-04-24T03:58:47;2.72;;;2.53;;
37657;SDS011;23500;53.268;8.308;2023-04-24T04:01:12;2.42;;;2.22;;
37657;SDS011;23500;53.268;8.308;2023-04-24T04:03:40;2.60;;;2.40;;
37657;SDS011;23500;53.268;8.308;2023-04-24T04:06:06;2.70;;;2.50;;
37657;SDS011;23500;53.268;8.308;2023-04-24T04:08:32;2.70;;;2.50;;
37657;SDS011;23500;53.268;8.308;2023-04-24T04:10:57;2.72;;;2.53;;
37657;SDS011;23500;53.268;8.308;2023-04-24T04:13:23;2.55;;;2.35;;
37657;SDS011;23500;53.268;8.308;2023-04-24T04:15:49;2.58;;;2.38;;
37657;SDS011;23500;53.268;8.308;2023-04-24T04:18:14;2.65;;;2.45;;
37657;SDS011;23500;53.268;8.308;2023-04-24T04:20:40;2.33;;;2.13;;
37657;SDS011;23500;53.268;8.308;2023-04-24T04:23:06;2.78;;;2.40;;
37657;SDS011;23500;53.268;8.308;2023-04-24T04:25:32;2.50;;;2.30;;
37657;SDS011;23500;53.268;8.308;2023-04-24T04:27:57;2.45;;;2.25;;
37657;SDS011;23500;53.268;8.308;2023-04-24T04:30:24;2.35;;;2.20;;
37657;SDS011;23500;53.268;8.308;2023-04-24T04:32:50;2.05;;;1.95;;
37657;SDS011;23500;53.268;8.308;2023-04-24T04:35:16;33.35;;;8.93;;
37657;SDS011;23500;53.268;8.308;2023-04-24T04:37:42;106.05;;;24.92;;
37657;SDS011;23500;53.268;8.308;2023-04-24T04:40:08;105.85;;;24.38;;
37657;SDS011;23500;53.268;8.308;2023-04-24T04:42:37;116.40;;;26.70;;
37657;SDS011;23500;53.268;8.308;2023-04-24T04:45:07;106.95;;;26.90;;
37657;SDS011;23500;53.268;8.308;2023-04-24T04:47:36;111.30;;;27.10;;
37657;SDS011;23500;53.268;8.308;2023-04-24T04:50:02;113.18;;;26.55;;
37657;SDS011;23500;53.268;8.308;2023-04-24T04:52:30;101.40;;;23.88;;
37657;SDS011;23500;53.268;8.308;2023-04-24T04:54:56;90.85;;;22.50;;
37657;SDS011;23500;53.268;8.308;2023-04-24T04:57:21;79.78;;;20.33;;
37657;SDS011;23500;53.268;8.308;2023-04-24T04:59:47;72.72;;;18.88;;
37657;SDS011;23500;53.268;8.308;2023-04-24T05:02:13;71.75;;;18.23;;
37657;SDS011;23500;53.268;8.308;2023-04-24T05:04:38;48.22;;;15.52;;
37657;SDS011;23500;53.268;8.308;2023-04-24T05:07:04;39.58;;;12.13;;
37657;SDS011;23500;53.268;8.308;2023-04-24T05:09:31;24.38;;;9.93;;
37657;SDS011;23500;53.268;8.308;2023-04-24T05:11:56;31.10;;;9.60;;
37657;SDS011;23500;53.268;8.308;2023-04-24T05:14:22;26.42;;;9.18;;
37657;SDS011;23500;53.268;8.308;2023-04-24T05:16:48;24.80;;;9.23;;
37657;SDS011;23500;53.268;8.308;2023-04-24T05:19:14;26.88;;;9.50;;
37657;SDS011;23500;53.268;8.308;2023-04-24T05:21:42;29.65;;;9.45;;
37657;SDS011;23500;53.268;8.308;2023-04-24T05:24:08;33.28;;;11.15;;
37657;SDS011;23500;53.268;8.308;2023-04-24T05:26:33;37.40;;;11.88;;
37657;SDS011;23500;53.268;8.308;2023-04-24T05:29:00;41.72;;;13.00;;
37657;SDS011;23500;53.268;8.308;2023-04-24T05:31:27;51.22;;;14.95;;
37657;SDS011;23500;53.268;8.308;2023-04-24T05:33:52;60.88;;;17.42;;
37657;SDS011;23500;53.268;8.308;2023-04-24T05:36:18;64.55;;;17.40;;
37657;SDS011;23500;53.268;8.308;2023-04-24T05:38:44;56.72;;;16.63;;
37657;SDS011;23500;53.268;8.308;2023-04-24T05:41:09;54.72;;;17.10;;
37657;SDS011;23500;53.268;8.308;2023-04-24T05:43:35;57.05;;;16.88;;
37657;SDS011;23500;53.268;8.308;2023-04-24T05:46:00;58.40;;;17.05;;
37657;SDS011;23500;53.268;8.308;2023-04-24T05:48:26;58.10;;;16.25;;
37657;SDS011;23500;53.268;8.308;2023-04-24T05:50:52;59.42;;;16.30;;
37657;SDS011;23500;53.268;8.308;2023-04-24T05:53:18;57.00;;;17.83;;
37657;SDS011;23500;53.268;8.308;2023-04-24T05:55:44;56.22;;;17.00;;
37657;SDS011;23500;53.268;8.308;2023-04-24T05:58:10;50.58;;;15.75;;
37657;SDS011;23500;53.268;8.308;2023-04-24T06:00:36;55.20;;;16.38;;
37657;SDS011;23500;53.268;8.308;2023-04-24T06:03:02;55.30;;;16.17;;
37657;SDS011;23500;53.268;8.308;2023-04-24T06:05:28;55.15;;;17.02;;
37657;SDS011;23500;53.268;8.308;2023-04-24T06:07:55;50.67;;;16.58;;
37657;SDS011;23500;53.268;8.308;2023-04-24T06:10:20;53.78;;;16.25;;
37657;SDS011;23500;53.268;8.308;2023-04-24T06:12:46;51.00;;;16.50;;
37657;SDS011;23500;53.268;8.308;2023-04-24T06:15:12;46.95;;;15.70;;
37657;SDS011;23500;53.268;8.308;2023-04-24T06:17:38;52.30;;;16.38;;
37657;SDS011;23500;53.268;8.308;2023-04-24T06:20:03;46.17;;;16.45;;
37657;SDS011;23500;53.268;8.308;2023-04-24T06:22:30;46.55;;;16.10;;
37657;SDS011;23500;53.268;8.308;2023-04-24T06:24:56;46.45;;;15.70;;
37657;SDS011;23500;53.268;8.308;2023-04-24T06:27:22;45.50;;;15.63;;
37657;SDS011;23500;53.268;8.308;2023-04-24T06:29:47;43.08;;;14.85;;
37657;SDS011;23500;53.268;8.308;2023-04-24T06:32:19;50.03;;;14.85;;
37657;SDS011;23500;53.268;8.308;2023-04-24T06:34:48;41.78;;;14.68;;
37657;SDS011;23500;53.268;8.308;2023-04-24T06:37:15;49.38;;;15.18;;
37657;SDS011;23500;53.268;8.308;2023-04-24T06:39:41;45.83;;;14.95;;
37657;SDS011;23500;53.268;8.308;2023-04-24T06:42:07;41.03;;;13.70;;
37657;SDS011;23500;53.268;8.308;2023-04-24T06:44:34;40.80;;;13.60;;
37657;SDS011;23500;53.268;8.308;2023-04-24T06:47:05;43.22;;;13.32;;
37657;SDS011;23500;53.268;8.308;2023-04-24T06:49:38;40.95;;;13.65;;
37657;SDS011;23500;53.268;8.308;2023-04-24T06:52:03;46.33;;;13.50;;
37657;SDS011;23500;53.268;8.308;2023-04-24T06:54:29;36.70;;;13.30;;
37657;SDS011;23500;53.268;8.308;2023-04-24T06:56:56;28.50;;;11.02;;
37657;SDS011;23500;53.268;8.308;2023-04-24T06:59:22;27.10;;;9.05;;
37657;SDS011;23500;53.268;8.308;2023-04-24T07:01:49;23.48;;;8.85;;
37657;SDS011;23500;53.268;8.308;2023-04-24T07:04:16;24.10;;;8.40;;
37657;SDS011;23500;53.268;8.308;2023-04-24T07:06:42;24.70;;;8.57;;
37657;SDS011;23500;53.268;8.308;2023-04-24T07:09:08;26.95;;;8.00;;
37657;SDS011;23500;53.268;8.308;2023-04-24T07:11:34;22.08;;;8.02;;
37657;SDS011;23500;53.268;8.308;2023-04-24T07:14:01;22.23;;;7.95;;
37657;SDS011;23500;53.268;8.308;2023-04-24T07:16:27;23.15;;;8.30;;
37657;SDS011;23500;53.268;8.308;2023-04-24T07:18:53;21.10;;;8.20;;
37657;SDS011;23500;53.268;8.308;2023-04-24T07:21:19;18.48;;;7.78;;
37657;SDS011;23500;53.268;8.308;2023-04-24T07:23:44;19.88;;;8.27;;
37657;SDS011;23500;53.268;8.308;2023-04-24T07:26:10;22.30;;;7.82;;
37657;SDS011;23500;53.268;8.308;2023-04-24T07:28:36;22.25;;;7.68;;
37657;SDS011;23500;53.268;8.308;2023-04-24T07:31:01;17.08;;;6.97;;
37657;SDS011;23500;53.268;8.308;2023-04-24T07:33:27;16.65;;;7.50;;
37657;SDS011;23500;53.268;8.308;2023-04-24T07:35:52;19.27;;;7.47;;
37657;SDS011;23500;53.268;8.308;2023-04-24T07:38:18;16.48;;;7.07;;
37657;SDS011;23500;53.268;8.308;2023-04-24T07:40:47;16.65;;;6.90;;
37657;SDS011;23500;53.268;8.308;2023-04-24T07:43:13;18.00;;;7.30;;
37657;SDS011;23500;53.268;8.308;2023-04-24T07:45:39;14.77;;;6.63;;
37657;SDS011;23500;53.268;8.308;2023-04-24T07:48:05;18.38;;;7.18;;
37657;SDS011;23500;53.268;8.308;2023-04-24T07:50:30;18.65;;;7.28;;
37657;SDS011;23500;53.268;8.308;2023-04-24T07:52:56;19.70;;;7.72;;
37657;SDS011;23500;53.268;8.308;2023-04-24T07:55:22;17.40;;;6.53;;
37657;SDS011;23500;53.268;8.308;2023-04-24T07:57:48;15.45;;;6.53;;
37657;SDS011;23500;53.268;8.308;2023-04-24T08:00:14;17.00;;;6.82;;
37657;SDS011;23500;53.268;8.308;2023-04-24T08:02:40;16.98;;;7.18;;
37657;SDS011;23500;53.268;8.308;2023-04-24T08:05:06;15.38;;;6.88;;
37657;SDS011;23500;53.268;8.308;2023-04-24T08:07:32;14.30;;;6.28;;
37657;SDS011;23500;53.268;8.308;2023-04-24T08:09:58;18.75;;;6.88;;
37657;SDS011;23500;53.268;8.308;2023-04-24T08:12:24;15.10;;;6.10;;
37657;SDS011;23500;53.268;8.308;2023-04-24T08:14:50;12.95;;;6.03;;
37657;SDS011;23500;53.268;8.308;2023-04-24T08:17:16;13.43;;;6.22;;
37657;SDS011;23500;53.268;8.308;2023-04-24T08:19:42;13.95;;;6.07;;
37657;SDS011;23500;53.268;8.308;2023-04-24T08:22:12;13.75;;;5.88;;
37657;SDS011;23500;53.268;8.308;2023-04-24T08:24:39;14.27;;;6.03;;
37657;SDS011;23500;53.268;8.308;2023-04-24T08:27:05;14.25;;;5.90;;
37657;SDS011;23500;53.268;8.308;2023-04-24T08:29:31;13.15;;;5.57;;
37657;SDS011;23500;53.268;8.308;2023-04-24T08:31:57;13.02;;;5.95;;
37657;SDS011;23500;53.268;8.308;2023-04-24T08:34:23;15.32;;;5.50;;
37657;SDS011;23500;53.268;8.308;2023-04-24T08:36:49;11.55;;;5.28;;
37657;SDS011;23500;53.268;8.308;2023-04-24T08:39:15;10.65;;;5.28;;
37657;SDS011;23500;53.268;8.308;2023-04-24T08:41:42;13.00;;;5.68;;
37657;SDS011;23500;53.268;8.308;2023-04-24T08:44:08;10.88;;;5.63;;
37657;SDS011;23500;53.268;8.308;2023-04-24T08:46:35;11.27;;;5.13;;
37657;SDS011;23500;53.268;8.308;2023-04-24T08:49:02;12.68;;;5.60;;
37657;SDS011;23500;53.268;8.308;2023-04-24T08:51:29;11.88;;;5.57;;
37657;SDS011;23500;53.268;8.308;2023-04-24T08:53:59;12.32;;;5.20;;
37657;SDS011;23500;53.268;8.308;2023-04-24T08:56:25;10.00;;;4.72;;
37657;SDS011;23500;53.268;8.308;2023-04-24T08:58:53;11.93;;;5.20;;
37657;SDS011;23500;53.268;8.308;2023-04-24T09:01:19;9.25;;;5.00;;
37657;SDS011;23500;53.268;8.308;2023-04-24T09:03:47;11.75;;;5.68;;
37657;SDS011;23500;53.268;8.308;2023-04-24T09:06:14;11.48;;;5.22;;
37657;SDS011;23500;53.268;8.308;2023-04-24T09:08:42;12.55;;;5.85;;
37657;SDS011;23500;53.268;8.308;2023-04-24T09:11:10;10.48;;;5.07;;
37657;SDS011;23500;53.268;8.308;2023-04-24T09:13:37;10.25;;;4.60;;
37657;SDS011;23500;53.268;8.308;2023-04-24T09:16:03;10.85;;;5.22;;
37657;SDS011;23500;53.268;8.308;2023-04-24T09:18:29;9.70;;;4.70;;
37657;SDS011;23500;53.268;8.308;2023-04-24T09:20:58;8.65;;;4.78;;
37657;SDS011;23500;53.268;8.308;2023-04-24T09:23:33;9.35;;;4.70;;
37657;SDS011;23500;53.268;8.308;2023-04-24T09:26:00;10.50;;;4.72;;
37657;SDS011;23500;53.268;8.308;2023-04-24T09:28:30;9.45;;;5.05;;
37657;SDS011;23500;53.268;8.308;2023-04-24T09:31:03;9.85;;;4.70;;
37657;SDS011;23500;53.268;8.308;2023-04-24T09:33:32;9.60;;;5.00;;
37657;SDS011;23500;53.268;8.308;2023-04-24T09:35:58;11.27;;;4.63;;
37657;SDS011;23500;53.268;8.308;2023-04-24T09:38:34;8.85;;;4.40;;
37657;SDS011;23500;53.268;8.308;2023-04-24T09:41:01;8.95;;;4.55;;
37657;SDS011;23500;53.268;8.308;2023-04-24T09:43:32;8.73;;;4.43;;
37657;SDS011;23500;53.268;8.308;2023-04-24T09:45:58;11.43;;;4.63;;
37657;SDS011;23500;53.268;8.308;2023-04-24T09:48:35;7.55;;;4.53;;
37657;SDS011;23500;53.268;8.308;2023-04-24T09:51:02;9.40;;;4.35;;
37657;SDS011;23500;53.268;8.308;2023-04-24T09:53:31;9.45;;;4.50;;
37657;SDS011;23500;53.268;8.308;2023-04-24T09:56:09;8.57;;;4.30;;
37657;SDS011;23500;53.268;8.308;2023-04-24T09:58:37;8.18;;;4.38;;
37657;SDS011;23500;53.268;8.308;2023-04-24T10:01:03;8.85;;;4.40;;
37657;SDS011;23500;53.268;8.308;2023-04-24T10:03:29;8.80;;;4.60;;
37657;SDS011;23500;53.268;8.308;2023-04-24T10:06:02;7.78;;;4.15;;
37657;SDS011;23500;53.268;8.308;2023-04-24T10:08:33;8.90;;;4.40;;
37657;SDS011;23500;53.268;8.308;2023-04-24T10:11:00;7.65;;;4.05;;
37657;SDS011;23500;53.268;8.308;2023-04-24T10:13:26;7.50;;;4.32;;
37657;SDS011;23500;53.268;8.308;2023-04-24T10:15:53;6.97;;;4.32;;
37657;SDS011;23500;53.268;8.308;2023-04-24T10:18:20;7.10;;;4.20;;
37657;SDS011;23500;53.268;8.308;2023-04-24T10:20:46;8.13;;;3.80;;
37657;SDS011;23500;53.268;8.308;2023-04-24T10:23:12;8.95;;;4.47;;
37657;SDS011;23500;53.268;8.308;2023-04-24T10:25:38;7.70;;;4.00;;
37657;SDS011;23500;53.268;8.308;2023-04-24T10:28:04;8.88;;;4.15;;
37657;SDS011;23500;53.268;8.308;2023-04-24T10:30:31;7.97;;;4.30;;
37657;SDS011;23500;53.268;8.308;2023-04-24T10:33:04;8.32;;;4.03;;
37657;SDS011;23500;53.268;8.308;2023-04-24T10:35:33;7.43;;;3.78;;
37657;SDS011;23500;53.268;8.308;2023-04-24T10:40:34;10.90;;;3.85;;
37657;SDS011;23500;53.268;8.308;2023-04-24T10:43:04;6.07;;;3.70;;
37657;SDS011;23500;53.268;8.308;2023-04-24T10:45:32;8.48;;;4.13;;
37657;SDS011;23500;53.268;8.308;2023-04-24T10:48:02;6.47;;;4.00;;
37657;SDS011;23500;53.268;8.308;2023-04-24T10:50:46;7.18;;;3.95;;
37657;SDS011;23500;53.268;8.308;2023-04-24T10:53:22;5.68;;;3.50;;
37657;SDS011;23500;53.268;8.308;2023-04-24T10:56:05;6.70;;;3.97;;
37657;SDS011;23500;53.268;8.308;2023-04-24T10:58:42;6.40;;;3.60;;
37657;SDS011;23500;53.268;8.308;2023-04-24T11:01:28;6.32;;;3.60;;
37657;SDS011;23500;53.268;8.308;2023-04-24T11:03:59;5.78;;;3.65;;
37657;SDS011;23500;53.268;8.308;2023-04-24T11:06:31;6.80;;;3.97;;
37657;SDS011;23500;53.268;8.308;2023-04-24T11:09:01;7.38;;;3.70;;
37657;SDS011;23500;53.268;8.308;2023-04-24T11:11:36;7.00;;;3.50;;
37657;SDS011;23500;53.268;8.308;2023-04-24T11:14:05;6.70;;;3.75;;
37657;SDS011;23500;53.268;8.308;2023-04-24T11:19:17;5.15;;;3.38;;
37657;SDS011;23500;53.268;8.308;2023-04-24T11:24:29;7.03;;;3.65;;
37657;SDS011;23500;53.268;8.308;2023-04-24T11:35:02;6.68;;;3.35;;
37657;SDS011;23500;53.268;8.308;2023-04-24T11:37:39;7.65;;;3.67;;
37657;SDS011;23500;53.268;8.308;2023-04-24T11:40:10;6.95;;;3.50;;
37657;SDS011;23500;53.268;8.308;2023-04-24T11:42:38;9.13;;;3.50;;
37657;SDS011;23500;53.268;8.308;2023-04-24T11:45:18;7.45;;;3.85;;
37657;SDS011;23500;53.268;8.308;2023-04-24T11:47:47;5.25;;;3.50;;
37657;SDS011;23500;53.268;8.308;2023-04-24T11:50:14;8.73;;;3.63;;
37657;SDS011;23500;53.268;8.308;2023-04-24T11:52:42;7.15;;;3.85;;
37657;SDS011;23500;53.268;8.308;2023-04-24T11:57:45;7.05;;;3.78;;
37657;SDS011;23500;53.268;8.308;2023-04-24T12:00:16;5.90;;;3.50;;
37657;SDS011;23500;53.268;8.308;2023-04-24T12:02:47;5.50;;;3.42;;
37657;SDS011;23500;53.268;8.308;2023-04-24T12:05:20;6.65;;;3.20;;
37657;SDS011;23500;53.268;8.308;2023-04-24T12:07:48;6.85;;;3.55;;
37657;SDS011;23500;53.268;8.308;2023-04-24T12:10:14;6.70;;;3.70;;
37657;SDS011;23500;53.268;8.308;2023-04-24T12:12:40;7.22;;;3.63;;
37657;SDS011;23500;53.268;8.308;2023-04-24T12:15:09;6.45;;;3.42;;
37657;SDS011;23500;53.268;8.308;2023-04-24T12:17:35;6.05;;;3.33;;
37657;SDS011;23500;53.268;8.308;2023-04-24T12:20:04;5.38;;;3.08;;
37657;SDS011;23500;53.268;8.308;2023-04-24T12:22:51;5.18;;;3.50;;
37657;SDS011;23500;53.268;8.308;2023-04-24T12:25:24;4.03;;;3.17;;
37657;SDS011;23500;53.268;8.308;2023-04-24T12:27:52;6.25;;;3.63;;
37657;SDS011;23500;53.268;8.308;2023-04-24T12:30:20;5.65;;;3.10;;
37657;SDS011;23500;53.268;8.308;2023-04-24T12:32:47;5.53;;;3.50;;
37657;SDS011;23500;53.268;8.308;2023-04-24T12:35:25;7.82;;;3.42;;
37657;SDS011;23500;53.268;8.308;2023-04-24T12:38:04;6.20;;;3.45;;
37657;SDS011;23500;53.268;8.308;2023-04-24T12:40:34;5.88;;;3.38;;
37657;SDS011;23500;53.268;8.308;2023-04-24T12:43:00;6.43;;;3.60;;
37657;SDS011;23500;53.268;8.308;2023-04-24T12:45:26;6.32;;;3.47;;
37657;SDS011;23500;53.268;8.308;2023-04-24T12:47:52;5.50;;;3.20;;
37657;SDS011;23500;53.268;8.308;2023-04-24T12:50:18;4.65;;;2.90;;
37657;SDS011;23500;53.268;8.308;2023-04-24T12:52:44;5.22;;;2.88;;
37657;SDS011;23500;53.268;8.308;2023-04-24T12:55:10;4.65;;;3.10;;
37657;SDS011;23500;53.268;8.308;2023-04-24T12:57:37;5.68;;;3.40;;
37657;SDS011;23500;53.268;8.308;2023-04-24T13:00:04;6.40;;;3.22;;
37657;SDS011;23500;53.268;8.308;2023-04-24T13:02:31;5.75;;;3.28;;
37657;SDS011;23500;53.268;8.308;2023-04-24T13:04:57;4.35;;;2.90;;
37657;SDS011;23500;53.268;8.308;2023-04-24T13:07:24;6.93;;;3.08;;
37657;SDS011;23500;53.268;8.308;2023-04-24T13:09:50;4.47;;;3.05;;
37657;SDS011;23500;53.268;8.308;2023-04-24T13:12:17;5.93;;;3.13;;
37657;SDS011;23500;53.268;8.308;2023-04-24T13:14:43;4.57;;;2.85;;
37657;SDS011;23500;53.268;8.308;2023-04-24T13:17:09;7.25;;;3.10;;
37657;SDS011;23500;53.268;8.308;2023-04-24T13:19:36;5.90;;;2.83;;
37657;SDS011;23500;53.268;8.308;2023-04-24T13:22:03;4.25;;;3.20;;
37657;SDS011;23500;53.268;8.308;2023-04-24T13:24:29;4.85;;;2.80;;
37657;SDS011;23500;53.268;8.308;2023-04-24T13:26:56;5.45;;;3.20;;
37657;SDS011;23500;53.268;8.308;2023-04-24T13:29:22;5.82;;;3.40;;
37657;SDS011;23500;53.268;8.308;2023-04-24T13:31:49;5.10;;;2.90;;
37657;SDS011;23500;53.268;8.308;2023-04-24T13:34:15;4.57;;;2.78;;
37657;SDS011;23500;53.268;8.308;2023-04-24T13:36:41;5.30;;;3.10;;
37657;SDS011;23500;53.268;8.308;2023-04-24T13:39:07;4.10;;;2.80;;
37657;SDS011;23500;53.268;8.308;2023-04-24T13:41:33;5.13;;;4.00;;
37657;SDS011;23500;53.268;8.308;2023-04-24T13:43:59;5.47;;;4.18;;
37657;SDS011;23500;53.268;8.308;2023-04-24T13:46:25;4.88;;;4.30;;
37657;SDS011;23500;53.268;8.308;2023-04-24T13:48:50;7.70;;;5.30;;
37657;SDS011;23500;53.268;8.308;2023-04-24T13:51:16;6.00;;;4.95;;
37657;SDS011;23500;53.268;8.308;2023-04-24T13:53:42;8.02;;;5.70;;
37657;SDS011;23500;53.268;8.308;2023-04-24T13:56:07;7.95;;;5.97;;
37657;SDS011;23500;53.268;8.308;2023-04-24T13:58:34;7.82;;;6.20;;
37657;SDS011;23500;53.268;8.308;2023-04-24T14:01:02;7.10;;;5.85;;
37657;SDS011;23500;53.268;8.308;2023-04-24T14:03:28;10.70;;;6.63;;
37657;SDS011;23500;53.268;8.308;2023-04-24T14:05:54;6.50;;;5.80;;
37657;SDS011;23500;53.268;8.308;2023-04-24T14:08:19;7.88;;;6.00;;
37657;SDS011;23500;53.268;8.308;2023-04-24T14:10:45;10.80;;;6.28;;
37657;SDS011;23500;53.268;8.308;2023-04-24T14:13:11;7.32;;;5.85;;
37657;SDS011;23500;53.268;8.308;2023-04-24T14:15:37;7.35;;;6.63;;
37657;SDS011;23500;53.268;8.308;2023-04-24T14:18:03;18.63;;;15.18;;
37657;SDS011;23500;53.268;8.308;2023-04-24T14:20:29;24.10;;;21.50;;
37657;SDS011;23500;53.268;8.308;2023-04-24T14:22:54;19.88;;;17.98;;
37657;SDS011;23500;53.268;8.308;2023-04-24T14:25:20;24.95;;;22.55;;
37657;SDS011;23500;53.268;8.308;2023-04-24T14:27:47;25.10;;;22.67;;
37657;SDS011;23500;53.268;8.308;2023-04-24T14:30:13;26.75;;;19.75;;
37657;SDS011;23500;53.268;8.308;2023-04-24T14:32:40;21.23;;;19.10;;
37657;SDS011;23500;53.268;8.308;2023-04-24T14:35:06;22.10;;;19.98;;
37657;SDS011;23500;53.268;8.308;2023-04-24T14:37:32;21.58;;;19.30;;
37657;SDS011;23500;53.268;8.308;2023-04-24T14:39:58;20.67;;;18.63;;
37657;SDS011;23500;53.268;8.308;2023-04-24T14:42:23;20.05;;;17.95;;
37657;SDS011;23500;53.268;8.308;2023-04-24T14:44:49;21.33;;;18.98;;
37657;SDS011;23500;53.268;8.308;2023-04-24T14:47:15;18.95;;;17.10;;
37657;SDS011;23500;53.268;8.308;2023-04-24T14:49:42;21.58;;;18.02;;
37657;SDS011;23500;53.268;8.308;2023-04-24T14:52:08;18.95;;;17.08;;
37657;SDS011;23500;53.268;8.308;2023-04-24T14:54:35;19.35;;;17.50;;
37657;SDS011;23500;53.268;8.308;2023-04-24T14:57:00;19.40;;;17.35;;